Murrells Inlet, SC (29576)

6:22 PM EDT on August 31, 2016 (GMT -0400)
Palm Bay | | Change Station

Elev 18 ft 33.57 °N, 79.05 °W | Updated 4 seconds ago

Mostly Cloudy
Mostly Cloudy
80.9 °F
Feels Like 87 °F
N
2.0
Wind Variable Wind from ESE
Gusts 6.0 mph

Today
High -- | Low -- °F
--% Chance of Precip.
Yesterday
High -- | Low -- °F
Precip. -- in
Pressure 29.93 in
Visibility 10.0 miles
Clouds Mostly Cloudy 1900 ft
Heat Index 87 °F
Dew Point 76 °F
Humidity 85%
Rainfall 0.64 in
Snow Depth Not available.
6:49 AM 7:42 PM
Waning Crescent, 0% visible
METAR KMYR 312145Z 14006KT 10SM BKN019 28/20 A2993
Pressure 29.93 in
Visibility 10.0 miles
Clouds Mostly Cloudy 1900 ft
Heat Index 87 °F
Dew Point 76 °F
Humidity 85%
Rainfall 0.64 in
Snow Depth Not available.
6:49 AM 7:42 PM
Waning Crescent, 0% visible
METAR KMYR 312145Z 14006KT 10SM BKN019 28/20 A2993

10-Day Weather Forecast

Almanac

Astronomy

Aug. 31, 2016 Rise Set
Actual Time
Civil Twilight
Nautical Twilight
Astronomical Twilight
Moon
Length of Visible Light
Length of Day
Tomorrow will be .
, % of the Moon is Illuminated

Today's Extremes

State Highs State Lows

Community

WunderPhotos

Upload Photos

1,936,200 photos uploaded!

WunderBlog® & News

Nearby

Air Quality

  Air Quality AQ Index Pollutant
Not available.

Snow Depth

Station Depth Elevation

Earthquake Activity

City Distance Mag. Time & Date
Minimum magnitude displayed is 2.5.

Coastal Water Temperatures

Place Temperature

Stations

Nearby Weather Stations

Station Location Temp. Windchill Dew Point Humidity Wind Precip. Elev Updated Type
                   

Watches & Warnings

There are currently no watches in effect.